createdAt,value
2023-05-24T00:00:24.845Z,15.74
2023-05-24T00:01:26.577Z,15.74
2023-05-24T00:02:28.417Z,15.76
2023-05-24T00:03:31.250Z,15.76
2023-05-24T00:04:33.713Z,15.74
2023-05-24T00:05:38.022Z,15.77
2023-05-24T00:06:39.803Z,15.73
2023-05-24T00:07:41.575Z,15.70
2023-05-24T00:08:43.399Z,15.64
2023-05-24T00:09:45.197Z,15.66
2023-05-24T00:10:47.008Z,15.64
2023-05-24T00:11:48.851Z,15.56
2023-05-24T00:12:51.014Z,15.54
2023-05-24T00:13:52.788Z,15.53
2023-05-24T00:14:54.601Z,15.50
2023-05-24T00:15:56.400Z,15.29
2023-05-24T00:16:58.282Z,15.20
2023-05-24T00:18:00.247Z,15.22
2023-05-24T00:19:02.390Z,15.22
2023-05-24T00:20:06.673Z,15.20
2023-05-24T00:21:09.127Z,15.19
2023-05-24T00:22:11.993Z,15.17
2023-05-24T00:23:13.746Z,15.19
2023-05-24T00:24:17.361Z,15.13
2023-05-24T00:25:19.212Z,15.11
2023-05-24T00:26:21.599Z,15.17
2023-05-24T00:27:23.411Z,15.18
2023-05-24T00:28:25.242Z,15.15
2023-05-24T00:29:26.981Z,15.14
2023-05-24T00:30:28.769Z,15.16
2023-05-24T00:31:30.696Z,15.22
2023-05-24T00:32:32.509Z,15.28
2023-05-24T00:33:34.524Z,15.31
2023-05-24T00:34:36.314Z,15.37
2023-05-24T00:35:38.060Z,15.41
2023-05-24T00:36:39.837Z,15.44
2023-05-24T00:37:45.331Z,15.46
2023-05-24T00:38:47.446Z,15.49
2023-05-24T00:39:49.193Z,15.47
2023-05-24T00:40:51.157Z,15.45
2023-05-24T00:41:53.212Z,15.53
2023-05-24T00:42:55.061Z,15.53
2023-05-24T00:43:56.879Z,15.57
2023-05-24T00:44:58.648Z,15.55
2023-05-24T00:46:22.532Z,15.55
2023-05-24T00:47:24.528Z,15.57
2023-05-24T00:48:28.948Z,15.56
2023-05-24T00:49:31.580Z,15.57
2023-05-24T00:50:34.033Z,15.57
2023-05-24T00:51:37.206Z,15.57
2023-05-24T00:52:43.068Z,15.56
2023-05-24T00:53:47.509Z,15.58
2023-05-24T00:54:49.852Z,15.54
2023-05-24T00:55:51.723Z,15.52
2023-05-24T00:56:54.964Z,15.53
2023-05-24T00:57:59.697Z,15.55
2023-05-24T00:59:01.471Z,15.55
2023-05-24T01:00:06.000Z,15.54
2023-05-24T01:01:08.466Z,15.49
2023-05-24T01:02:10.675Z,15.52
2023-05-24T01:03:12.546Z,15.51
2023-05-24T01:04:14.664Z,15.49
2023-05-24T01:05:17.563Z,15.52
2023-05-24T01:06:19.791Z,15.50
2023-05-24T01:07:54.611Z,15.52
2023-05-24T01:09:26.001Z,15.48
2023-05-24T01:10:52.468Z,15.48
2023-05-24T01:12:07.148Z,15.47
2023-05-24T01:13:27.459Z,15.46
2023-05-24T01:14:52.190Z,15.44
2023-05-24T01:16:01.604Z,15.40
2023-05-24T01:17:15.244Z,15.43
2023-05-24T01:18:26.245Z,15.39
2023-05-24T01:19:51.884Z,15.37
2023-05-24T01:21:06.810Z,15.37
2023-05-24T01:22:24.566Z,15.36
2023-05-24T01:23:51.902Z,15.36
2023-05-24T01:25:07.569Z,15.36
2023-05-24T01:26:27.972Z,15.37
2023-05-24T01:27:33.408Z,15.30
2023-05-24T01:28:36.266Z,15.31
2023-05-24T01:29:39.197Z,15.34
2023-05-24T01:30:41.991Z,15.31
2023-05-24T01:31:44.264Z,15.27
2023-05-24T01:32:46.306Z,15.29
2023-05-24T01:33:48.256Z,15.26
2023-05-24T01:34:50.064Z,15.21
2023-05-24T01:35:51.918Z,15.22
2023-05-24T01:36:54.208Z,15.22
2023-05-24T01:37:55.942Z,15.16
2023-05-24T01:38:57.723Z,15.20
2023-05-24T01:40:00.247Z,15.20
2023-05-24T01:41:22.804Z,15.17
2023-05-24T01:42:36.727Z,14.93
2023-05-24T01:43:43.484Z,14.67
2023-05-24T01:45:02.323Z,14.59
2023-05-24T01:46:21.307Z,14.60
2023-05-24T01:47:32.789Z,14.60
2023-05-24T01:49:05.303Z,14.64
2023-05-24T01:50:24.443Z,14.66
2023-05-24T01:51:34.426Z,14.63
2023-05-24T01:52:36.449Z,14.67
2023-05-24T01:53:47.095Z,14.66
2023-05-24T01:54:52.199Z,14.72
2023-05-24T01:55:56.770Z,14.69
2023-05-24T01:56:59.941Z,14.73
2023-05-24T01:58:06.044Z,14.74
2023-05-24T01:59:08.913Z,14.57
2023-05-24T02:00:14.445Z,14.74
2023-05-24T02:01:16.687Z,14.70
2023-05-24T02:02:19.279Z,14.64
2023-05-24T02:03:21.757Z,14.49
2023-05-24T02:04:24.734Z,14.50
2023-05-24T02:05:26.503Z,14.54
2023-05-24T02:06:28.307Z,14.56
2023-05-24T02:07:30.095Z,14.54
2023-05-24T02:08:31.878Z,14.50
2023-05-24T02:09:33.761Z,14.49
2023-05-24T02:10:38.477Z,14.44
2023-05-24T02:11:40.580Z,14.47
2023-05-24T02:12:42.362Z,14.46
2023-05-24T02:13:44.180Z,14.46
2023-05-24T02:14:45.931Z,14.47
2023-05-24T02:15:48.075Z,14.45
2023-05-24T02:16:51.000Z,14.42
2023-05-24T02:17:54.880Z,14.43
2023-05-24T02:18:57.571Z,14.42
2023-05-24T02:20:04.010Z,14.44
2023-05-24T02:21:05.932Z,14.44
2023-05-24T02:22:07.828Z,14.45
2023-05-24T02:23:09.679Z,14.41
2023-05-24T02:24:12.637Z,14.44
2023-05-24T02:25:14.667Z,14.48
2023-05-24T02:26:17.919Z,14.48
2023-05-24T02:27:19.714Z,14.48
2023-05-24T02:28:21.497Z,14.44
2023-05-24T02:29:23.319Z,14.50
2023-05-24T02:30:25.370Z,14.52
2023-05-24T02:31:28.928Z,14.50
2023-05-24T02:32:31.496Z,14.49
2023-05-24T02:33:33.925Z,14.51
2023-05-24T02:34:35.796Z,14.48
2023-05-24T02:35:37.527Z,14.50
2023-05-24T02:36:39.285Z,14.48
2023-05-24T02:37:41.205Z,14.44
2023-05-24T02:38:42.973Z,14.47
2023-05-24T02:39:44.700Z,14.44
2023-05-24T02:40:46.473Z,14.48
2023-05-24T02:41:48.211Z,14.45
2023-05-24T02:42:50.135Z,14.48
2023-05-24T02:43:51.860Z,14.49
2023-05-24T02:44:53.762Z,14.49
2023-05-24T02:45:55.718Z,14.50
2023-05-24T02:46:57.518Z,14.49
2023-05-24T02:47:59.351Z,14.45
2023-05-24T02:49:01.206Z,14.49
2023-05-24T02:50:03.156Z,14.42
2023-05-24T02:51:05.080Z,14.48
2023-05-24T02:52:07.242Z,14.38
2023-05-24T02:53:09.007Z,14.48
2023-05-24T02:54:10.782Z,14.46
2023-05-24T02:55:12.576Z,14.43
2023-05-24T02:56:14.347Z,14.42
2023-05-24T02:57:16.730Z,14.45
2023-05-24T02:58:18.486Z,14.40
2023-05-24T02:59:20.226Z,14.43
2023-05-24T03:00:22.111Z,14.45
2023-05-24T03:01:23.924Z,14.41
2023-05-24T03:02:28.700Z,14.37
2023-05-24T03:03:30.842Z,14.33
2023-05-24T03:04:32.750Z,14.27
2023-05-24T03:05:34.523Z,14.27
2023-05-24T03:06:36.490Z,14.21
2023-05-24T03:07:38.230Z,14.18
2023-05-24T03:08:40.689Z,14.17
2023-05-24T03:09:42.585Z,14.09
2023-05-24T03:10:44.708Z,14.10
2023-05-24T03:11:46.588Z,14.05
2023-05-24T03:12:48.352Z,13.97
2023-05-24T03:13:50.267Z,13.95
2023-05-24T03:14:52.115Z,13.94
2023-05-24T03:15:53.937Z,13.96
2023-05-24T03:16:55.842Z,13.80
2023-05-24T03:17:57.584Z,13.99
2023-05-24T03:19:00.171Z,14.05
2023-05-24T03:20:02.085Z,14.07
2023-05-24T03:21:04.121Z,14.09
2023-05-24T03:22:06.347Z,14.10
2023-05-24T03:23:09.855Z,14.08
2023-05-24T03:24:13.346Z,14.10
2023-05-24T03:25:15.203Z,14.13
2023-05-24T03:26:18.802Z,14.17
2023-05-24T03:27:20.572Z,14.15
2023-05-24T03:28:22.451Z,14.16
2023-05-24T03:29:24.263Z,14.15
2023-05-24T03:30:26.141Z,14.11
2023-05-24T03:31:28.219Z,14.23
2023-05-24T03:32:30.001Z,14.28
2023-05-24T03:33:32.272Z,14.36
2023-05-24T03:34:34.016Z,14.44
2023-05-24T03:35:35.877Z,14.43
2023-05-24T03:36:37.670Z,14.53
2023-05-24T03:37:39.488Z,14.60
2023-05-24T03:38:41.282Z,14.60
2023-05-24T03:39:43.019Z,14.68
2023-05-24T03:40:44.888Z,14.72
2023-05-24T03:41:46.709Z,14.75
2023-05-24T03:42:48.453Z,14.82
2023-05-24T03:43:50.588Z,14.88
2023-05-24T03:44:52.348Z,14.96
2023-05-24T03:45:54.236Z,15.05
2023-05-24T03:46:56.106Z,15.14
2023-05-24T03:47:58.592Z,15.27
2023-05-24T03:49:00.431Z,15.36
2023-05-24T03:50:02.225Z,15.37
2023-05-24T03:51:04.148Z,15.52
2023-05-24T03:52:06.375Z,15.65
2023-05-24T03:53:08.164Z,15.75
2023-05-24T03:54:10.146Z,15.79
2023-05-24T03:55:11.893Z,15.94
2023-05-24T03:56:13.641Z,16.02
2023-05-24T03:57:15.780Z,16.12
2023-05-24T03:58:17.601Z,16.20
2023-05-24T03:59:19.942Z,16.33
2023-05-24T04:00:21.835Z,16.47
2023-05-24T04:01:33.518Z,16.54
2023-05-24T04:02:39.836Z,16.67
2023-05-24T04:03:41.847Z,16.77
2023-05-24T04:04:43.635Z,16.82
2023-05-24T04:05:45.852Z,17.02
2023-05-24T04:06:48.134Z,17.10
2023-05-24T04:07:52.665Z,17.22
2023-05-24T04:09:01.081Z,17.33
2023-05-24T04:10:05.044Z,17.42
2023-05-24T04:11:07.275Z,17.59
2023-05-24T04:12:09.290Z,17.53
2023-05-24T04:13:11.252Z,17.80
2023-05-24T04:14:13.016Z,17.92
2023-05-24T04:15:15.397Z,18.07
2023-05-24T04:16:17.614Z,18.19
2023-05-24T04:17:19.516Z,18.33
2023-05-24T04:18:21.891Z,18.49
2023-05-24T04:19:23.740Z,18.65
2023-05-24T04:20:27.312Z,18.83
2023-05-24T04:21:29.213Z,19.01
2023-05-24T04:22:30.960Z,19.12
2023-05-24T04:23:32.758Z,19.20
2023-05-24T04:24:34.504Z,19.29
2023-05-24T04:25:36.377Z,19.43
2023-05-24T04:26:38.156Z,19.52
2023-05-24T04:27:40.104Z,19.67
2023-05-24T04:28:42.540Z,19.80
2023-05-24T04:29:50.073Z,19.92
2023-05-24T04:30:52.458Z,20.09
2023-05-24T04:31:54.248Z,20.25
2023-05-24T04:32:58.928Z,20.45
2023-05-24T04:34:01.875Z,20.61
2023-05-24T04:35:04.506Z,20.81
2023-05-24T04:36:06.465Z,20.99
2023-05-24T04:37:08.988Z,21.15
2023-05-24T04:38:12.682Z,21.32
2023-05-24T04:39:14.495Z,21.49
2023-05-24T04:40:25.246Z,21.56
2023-05-24T04:41:28.342Z,21.75
2023-05-24T04:42:31.860Z,21.85
2023-05-24T04:43:34.930Z,21.97
2023-05-24T04:44:36.794Z,22.03
2023-05-24T04:45:38.523Z,22.14
2023-05-24T04:46:40.335Z,22.26
2023-05-24T04:47:42.537Z,22.40
2023-05-24T04:48:44.833Z,22.51
2023-05-24T04:49:46.566Z,22.62
2023-05-24T04:50:48.349Z,22.71
2023-05-24T04:51:50.156Z,22.83
2023-05-24T04:52:51.939Z,22.94
2023-05-24T04:53:53.724Z,23.06
2023-05-24T04:54:55.740Z,23.16
2023-05-24T04:55:57.610Z,23.26
2023-05-24T04:56:59.527Z,23.38
2023-05-24T04:58:01.376Z,23.54
2023-05-24T04:59:03.164Z,23.66
2023-05-24T05:00:05.699Z,23.78
2023-05-24T05:01:07.844Z,23.89
2023-05-24T05:02:09.846Z,24.00
2023-05-24T05:03:11.910Z,24.10
2023-05-24T05:04:13.958Z,24.13
2023-05-24T05:05:16.353Z,24.30
2023-05-24T05:06:18.114Z,24.42
2023-05-24T05:07:20.215Z,24.45
2023-05-24T05:08:25.516Z,24.52
2023-05-24T05:09:30.905Z,24.55
2023-05-24T05:10:35.157Z,24.74
2023-05-24T05:11:38.024Z,24.71
2023-05-24T05:12:39.796Z,24.99
2023-05-24T05:13:41.601Z,25.08
2023-05-24T05:14:43.424Z,25.27
2023-05-24T05:15:45.182Z,25.38
2023-05-24T05:16:47.140Z,25.51
2023-05-24T05:17:49.438Z,25.62
2023-05-24T05:18:51.249Z,25.71
2023-05-24T05:19:53.056Z,25.83
2023-05-24T05:20:54.804Z,25.90
2023-05-24T05:21:56.591Z,25.87
2023-05-24T05:22:58.350Z,25.92
2023-05-24T05:24:01.145Z,25.99
2023-05-24T05:25:02.929Z,26.09
2023-05-24T05:26:04.746Z,26.21
2023-05-24T05:27:06.829Z,26.27
2023-05-24T05:28:08.556Z,26.35
2023-05-24T05:29:12.996Z,26.38
2023-05-24T05:30:15.024Z,26.38
2023-05-24T05:31:16.780Z,26.23
2023-05-24T05:32:18.632Z,26.12
2023-05-24T05:33:20.602Z,26.17
2023-05-24T05:34:22.407Z,26.17
2023-05-24T05:35:24.379Z,26.02
2023-05-24T05:36:26.228Z,26.14
2023-05-24T05:37:27.951Z,26.18
2023-05-24T05:38:29.694Z,26.31
2023-05-24T05:39:32.119Z,26.38
2023-05-24T05:40:34.117Z,26.44
2023-05-24T05:41:40.204Z,26.57
2023-05-24T05:42:41.999Z,26.65
2023-05-24T05:43:43.726Z,26.80
2023-05-24T05:44:45.531Z,26.89
2023-05-24T05:45:47.436Z,27.04
2023-05-24T05:46:49.293Z,27.16
2023-05-24T05:47:51.827Z,27.07
2023-05-24T05:48:54.898Z,27.15
2023-05-24T05:49:56.730Z,27.23
2023-05-24T05:50:58.505Z,27.05
2023-05-24T05:52:00.294Z,27.10
2023-05-24T05:53:02.068Z,27.26
2023-05-24T05:54:03.945Z,27.36
2023-05-24T05:55:06.284Z,27.25
2023-05-24T05:56:08.046Z,27.28
2023-05-24T05:57:12.430Z,27.38
2023-05-24T05:58:14.278Z,27.33
2023-05-24T05:59:16.199Z,27.25
2023-05-24T06:00:18.493Z,27.25
2023-05-24T06:01:20.276Z,27.27
2023-05-24T06:02:27.677Z,27.36
2023-05-24T06:03:29.747Z,27.24
2023-05-24T06:04:31.666Z,27.24
2023-05-24T06:05:33.694Z,27.10
2023-05-24T06:06:35.464Z,26.94
2023-05-24T06:07:38.777Z,26.85
2023-05-24T06:08:41.094Z,26.72
2023-05-24T06:09:42.881Z,26.62
2023-05-24T06:10:47.355Z,26.62
2023-05-24T06:11:49.153Z,26.79
2023-05-24T06:12:51.169Z,26.85
2023-05-24T06:13:53.651Z,26.94
2023-05-24T06:14:57.684Z,27.09
2023-05-24T06:16:00.034Z,27.25
2023-05-24T06:17:02.297Z,27.16
2023-05-24T06:18:05.578Z,27.04
2023-05-24T06:19:07.935Z,26.86
2023-05-24T06:20:13.824Z,26.73
2023-05-24T06:21:16.699Z,26.60
2023-05-24T06:22:18.547Z,26.55
2023-05-24T06:23:20.585Z,26.59
2023-05-24T06:24:22.404Z,26.77
2023-05-24T06:25:25.041Z,27.17
2023-05-24T06:26:27.474Z,27.45
2023-05-24T06:27:29.219Z,27.68
2023-05-24T06:28:31.052Z,27.78
2023-05-24T06:29:32.850Z,27.96
2023-05-24T06:30:35.766Z,28.31
2023-05-24T06:31:37.872Z,28.61
2023-05-24T06:32:39.987Z,28.90
2023-05-24T06:33:46.726Z,29.18
2023-05-24T06:34:51.327Z,29.36
2023-05-24T06:35:53.120Z,29.61
2023-05-24T06:36:54.855Z,29.71
2023-05-24T06:37:58.121Z,29.77
2023-05-24T06:39:02.680Z,29.83
2023-05-24T06:40:11.397Z,29.95
2023-05-24T06:41:13.302Z,30.24
2023-05-24T06:42:15.048Z,30.40
2023-05-24T06:43:17.591Z,30.45
2023-05-24T06:44:19.617Z,30.59
2023-05-24T06:45:21.464Z,30.70
2023-05-24T06:46:23.311Z,30.75
2023-05-24T06:47:25.413Z,30.78
2023-05-24T06:48:27.446Z,30.75
2023-05-24T06:49:29.574Z,30.77
2023-05-24T06:50:32.663Z,30.75
2023-05-24T06:51:34.615Z,30.68
2023-05-24T06:52:36.392Z,30.80
2023-05-24T06:53:38.119Z,30.87
2023-05-24T06:54:40.082Z,30.98
2023-05-24T06:55:41.873Z,31.08
2023-05-24T06:56:43.663Z,31.17
2023-05-24T06:57:45.532Z,31.41
2023-05-24T06:58:47.714Z,31.58
2023-05-24T06:59:49.495Z,31.63
2023-05-24T07:00:52.302Z,31.72
2023-05-24T07:01:58.907Z,31.87
2023-05-24T07:03:01.922Z,31.87
2023-05-24T07:04:03.771Z,31.97
2023-05-24T07:05:06.605Z,32.05
2023-05-24T07:06:10.148Z,31.77
2023-05-24T07:07:13.809Z,31.60
2023-05-24T07:08:15.669Z,31.52
2023-05-24T07:09:17.952Z,31.00
2023-05-24T07:10:19.809Z,30.62
2023-05-24T07:11:21.858Z,30.61
2023-05-24T07:12:23.731Z,30.56
2023-05-24T07:13:25.481Z,30.44
2023-05-24T07:14:28.305Z,30.23
2023-05-24T07:15:30.443Z,30.07
2023-05-24T07:16:32.286Z,30.06
2023-05-24T07:17:34.249Z,30.29
2023-05-24T07:18:36.477Z,30.78
2023-05-24T07:19:38.286Z,31.04
2023-05-24T07:20:40.434Z,30.92
2023-05-24T07:21:42.468Z,30.97
2023-05-24T07:22:44.517Z,31.14
2023-05-24T07:23:46.276Z,31.35
2023-05-24T07:24:48.061Z,31.73
2023-05-24T07:25:49.787Z,32.04
2023-05-24T07:26:52.696Z,32.14
2023-05-24T07:27:54.436Z,32.09
2023-05-24T07:28:56.489Z,31.91
2023-05-24T07:29:58.828Z,31.75
2023-05-24T07:31:01.081Z,31.78
2023-05-24T07:32:02.889Z,32.00
2023-05-24T07:33:04.740Z,31.96
2023-05-24T07:34:06.565Z,32.16
2023-05-24T07:35:08.916Z,32.20
2023-05-24T07:36:11.920Z,32.17
2023-05-24T07:37:13.717Z,32.19
2023-05-24T07:38:15.503Z,32.06
2023-05-24T07:39:17.266Z,31.98
2023-05-24T07:40:19.210Z,32.40
2023-05-24T07:41:26.704Z,32.69
2023-05-24T07:42:28.518Z,33.05
2023-05-24T07:43:30.514Z,33.29
2023-05-24T07:44:32.384Z,33.44
2023-05-24T07:45:34.285Z,33.45
2023-05-24T07:46:36.130Z,33.21
2023-05-24T07:47:39.608Z,33.23
2023-05-24T07:48:41.708Z,33.07
2023-05-24T07:49:43.488Z,33.08
2023-05-24T07:50:48.866Z,33.08
2023-05-24T07:51:50.744Z,33.25
2023-05-24T07:52:52.661Z,33.49
2023-05-24T07:53:54.551Z,33.67
2023-05-24T07:54:56.316Z,33.78
2023-05-24T07:55:58.058Z,33.89
2023-05-24T07:56:59.866Z,33.85
2023-05-24T07:58:02.174Z,33.48
2023-05-24T07:59:05.310Z,33.74
2023-05-24T08:00:15.156Z,33.84
2023-05-24T08:01:21.400Z,33.99
2023-05-24T08:02:23.414Z,34.15
2023-05-24T08:03:26.065Z,34.17
2023-05-24T08:04:28.248Z,34.47
2023-05-24T08:05:30.188Z,34.52
2023-05-24T08:06:35.297Z,34.54
2023-05-24T08:07:37.151Z,34.62
2023-05-24T08:08:40.371Z,34.72
2023-05-24T08:09:42.178Z,34.88
2023-05-24T08:10:44.002Z,35.00
2023-05-24T08:11:45.968Z,35.07
2023-05-24T08:12:47.936Z,35.05
2023-05-24T08:13:49.680Z,34.93
2023-05-24T08:14:51.458Z,35.09
2023-05-24T08:15:53.257Z,35.25
2023-05-24T08:16:55.033Z,35.37
2023-05-24T08:17:57.022Z,35.41
2023-05-24T08:18:58.837Z,35.47
2023-05-24T08:20:01.208Z,35.52
2023-05-24T08:21:03.038Z,35.15
2023-05-24T08:22:05.048Z,34.98
2023-05-24T08:23:06.942Z,34.81
2023-05-24T08:24:09.648Z,34.92
2023-05-24T08:25:14.609Z,35.00
2023-05-24T08:26:19.274Z,35.12
2023-05-24T08:27:21.548Z,34.99
2023-05-24T08:28:23.480Z,35.03
2023-05-24T08:29:25.485Z,35.22
2023-05-24T08:30:27.300Z,35.34
2023-05-24T08:31:29.058Z,35.32
2023-05-24T08:32:32.403Z,35.39
2023-05-24T08:33:34.213Z,35.44
2023-05-24T08:34:39.017Z,35.24
2023-05-24T08:35:41.589Z,35.30
2023-05-24T08:36:44.078Z,35.47
2023-05-24T08:37:47.466Z,35.55
2023-05-24T08:38:49.281Z,35.67
2023-05-24T08:39:51.282Z,35.85
2023-05-24T08:40:53.197Z,35.92
2023-05-24T08:42:08.525Z,35.76
2023-05-24T08:43:12.368Z,35.58
2023-05-24T08:44:14.591Z,35.60
2023-05-24T08:45:18.212Z,35.84
2023-05-24T08:46:20.436Z,36.02
2023-05-24T08:47:22.657Z,36.14
2023-05-24T08:48:25.900Z,36.35
2023-05-24T08:49:32.083Z,36.03
2023-05-24T08:50:35.789Z,36.09
2023-05-24T08:51:39.834Z,36.25
2023-05-24T08:52:42.839Z,36.41
2023-05-24T08:53:48.861Z,36.55
2023-05-24T08:54:53.232Z,36.70
2023-05-24T08:55:56.293Z,36.74
2023-05-24T08:56:59.474Z,36.81
2023-05-24T08:58:01.515Z,36.77
2023-05-24T08:59:03.342Z,36.79
2023-05-24T09:00:07.292Z,36.86
2023-05-24T09:01:11.554Z,36.84
2023-05-24T09:02:15.314Z,36.90
2023-05-24T09:03:18.820Z,36.85
2023-05-24T09:04:25.268Z,36.89
2023-05-24T09:05:28.880Z,37.07
2023-05-24T09:06:30.852Z,37.14
2023-05-24T09:07:33.355Z,36.85
2023-05-24T09:08:37.544Z,36.78
2023-05-24T09:09:45.413Z,36.83
2023-05-24T09:10:55.014Z,36.90
2023-05-24T09:12:02.285Z,36.91
2023-05-24T09:13:07.481Z,36.85
2023-05-24T09:14:09.757Z,36.70
2023-05-24T09:15:12.252Z,36.65
2023-05-24T09:16:15.555Z,36.65
2023-05-24T09:17:17.550Z,36.72
2023-05-24T09:18:19.431Z,36.80
2023-05-24T09:19:21.326Z,36.94
2023-05-24T09:20:23.524Z,36.94
2023-05-24T09:21:25.783Z,36.96
2023-05-24T09:22:30.674Z,37.09
2023-05-24T09:23:32.868Z,37.07
2023-05-24T09:24:41.693Z,37.17
2023-05-24T09:25:48.096Z,37.21
2023-05-24T09:26:51.160Z,37.31
2023-05-24T09:27:53.919Z,37.35
2023-05-24T09:28:56.665Z,37.27
2023-05-24T09:29:59.019Z,37.18
2023-05-24T09:31:06.370Z,37.17
2023-05-24T09:32:09.516Z,37.23
2023-05-24T09:33:12.965Z,37.23
2023-05-24T09:34:18.069Z,37.35
2023-05-24T09:35:19.864Z,37.43
2023-05-24T09:36:22.027Z,37.53
2023-05-24T09:37:31.093Z,36.82
2023-05-24T09:38:36.505Z,36.12
2023-05-24T09:39:42.232Z,35.60
2023-05-24T09:40:45.008Z,35.43
2023-05-24T09:41:56.797Z,35.35
2023-05-24T09:43:09.949Z,35.04
2023-05-24T09:44:15.499Z,34.81
2023-05-24T09:45:17.805Z,34.37
2023-05-24T09:46:20.269Z,34.08
2023-05-24T09:47:22.245Z,33.93
2023-05-24T09:48:24.243Z,33.91
2023-05-24T09:49:26.065Z,33.61
2023-05-24T09:50:27.943Z,33.79
2023-05-24T09:51:31.177Z,33.58
2023-05-24T09:52:37.087Z,33.93
2023-05-24T09:53:38.909Z,33.99
2023-05-24T09:54:41.881Z,33.53
2023-05-24T09:55:43.874Z,33.47
2023-05-24T09:56:46.859Z,32.85
2023-05-24T09:57:54.010Z,32.58
2023-05-24T09:58:56.856Z,32.49
2023-05-24T09:59:59.620Z,32.45
2023-05-24T10:01:09.186Z,32.44
2023-05-24T10:02:12.639Z,32.55
2023-05-24T10:03:15.391Z,32.65
2023-05-24T10:04:17.440Z,32.54
2023-05-24T10:05:19.398Z,32.49
2023-05-24T10:06:21.407Z,32.60
2023-05-24T10:07:23.203Z,33.05
2023-05-24T10:08:26.571Z,33.40
2023-05-24T10:09:34.231Z,33.84
2023-05-24T10:10:36.688Z,34.20
2023-05-24T10:11:38.618Z,34.45
2023-05-24T10:12:46.989Z,34.77
2023-05-24T10:13:49.706Z,35.13
2023-05-24T10:14:52.583Z,35.35
2023-05-24T10:15:54.450Z,35.58
2023-05-24T10:16:56.634Z,35.82
2023-05-24T10:18:00.134Z,36.07
2023-05-24T10:19:01.991Z,35.86
2023-05-24T10:20:07.011Z,35.83
2023-05-24T10:21:11.337Z,36.08
2023-05-24T10:22:14.347Z,36.20
2023-05-24T10:23:21.791Z,36.40
2023-05-24T10:24:27.147Z,36.31
2023-05-24T10:25:30.084Z,36.16
2023-05-24T10:26:32.973Z,36.37
2023-05-24T10:27:36.128Z,36.56
2023-05-24T10:28:49.126Z,36.83
2023-05-24T10:30:08.049Z,36.33
2023-05-24T10:31:16.125Z,36.64
2023-05-24T10:32:19.702Z,36.72
2023-05-24T10:33:24.226Z,36.59
2023-05-24T10:34:26.906Z,36.73
2023-05-24T10:35:29.892Z,36.96
2023-05-24T10:36:32.831Z,37.10
2023-05-24T10:37:34.669Z,37.30
2023-05-24T10:38:40.151Z,37.18
2023-05-24T10:39:42.144Z,37.21
2023-05-24T10:40:44.028Z,36.83
2023-05-24T10:41:45.951Z,36.58
2023-05-24T10:42:48.300Z,35.86
2023-05-24T10:44:07.881Z,35.79
2023-05-24T10:45:33.071Z,35.52
2023-05-24T10:46:35.080Z,35.44
2023-05-24T10:47:39.161Z,35.51
2023-05-24T10:48:44.107Z,35.41
2023-05-24T10:49:54.856Z,35.25
2023-05-24T10:50:56.563Z,34.98
2023-05-24T10:52:03.340Z,34.78
2023-05-24T10:53:19.129Z,35.03
2023-05-24T10:54:27.369Z,34.74
2023-05-24T10:55:29.219Z,34.50
2023-05-24T10:56:31.299Z,34.31
2023-05-24T10:57:33.379Z,34.22
2023-05-24T10:58:38.061Z,34.09
2023-05-24T10:59:40.492Z,33.73
2023-05-24T11:00:44.639Z,33.50
2023-05-24T11:01:55.256Z,33.41
2023-05-24T11:03:11.132Z,33.63
2023-05-24T11:04:17.198Z,33.63
2023-05-24T11:05:19.903Z,33.48
2023-05-24T11:06:55.786Z,32.83
2023-05-24T11:08:01.697Z,33.21
2023-05-24T11:09:03.680Z,33.39
2023-05-24T11:10:10.523Z,33.76
2023-05-24T11:12:20.824Z,33.94
2023-05-24T11:13:22.680Z,33.86
2023-05-24T11:14:27.785Z,33.83
2023-05-24T11:15:30.401Z,33.96
2023-05-24T11:16:40.142Z,33.98
2023-05-24T11:18:09.247Z,33.60
2023-05-24T11:19:18.104Z,33.88
2023-05-24T11:20:20.668Z,34.14
2023-05-24T11:21:23.794Z,34.24
2023-05-24T11:22:26.924Z,34.35
2023-05-24T11:23:29.965Z,34.37
2023-05-24T11:24:33.154Z,34.32
2023-05-24T11:25:38.864Z,34.24
2023-05-24T11:26:41.344Z,34.43
2023-05-24T11:27:44.803Z,34.67
2023-05-24T11:28:47.878Z,34.90
2023-05-24T11:29:49.707Z,34.88
2023-05-24T11:30:53.636Z,34.69
2023-05-24T11:32:06.184Z,34.31
2023-05-24T11:33:16.258Z,34.12
2023-05-24T11:34:19.141Z,34.17
2023-05-24T11:35:23.238Z,33.86
2023-05-24T11:36:26.205Z,33.71
2023-05-24T11:37:38.630Z,33.59
2023-05-24T11:38:49.000Z,33.79
2023-05-24T11:39:54.512Z,33.67
2023-05-24T11:40:58.491Z,33.83
2023-05-24T11:42:01.562Z,33.70
2023-05-24T11:43:06.822Z,33.43
2023-05-24T11:44:10.399Z,33.08
2023-05-24T11:45:14.074Z,33.07
2023-05-24T11:46:16.519Z,33.15
2023-05-24T11:47:20.902Z,32.97
2023-05-24T11:48:22.780Z,32.54
2023-05-24T11:49:24.578Z,32.37
2023-05-24T11:50:28.505Z,32.00
2023-05-24T11:51:32.348Z,31.94
2023-05-24T11:52:40.163Z,31.57
2023-05-24T11:53:41.941Z,31.32
2023-05-24T11:54:43.839Z,31.38
2023-05-24T11:55:45.667Z,31.41
2023-05-24T11:56:47.867Z,31.00
2023-05-24T11:57:57.976Z,30.48
2023-05-24T11:59:23.775Z,30.44
2023-05-24T12:00:26.898Z,30.10
2023-05-24T12:01:29.106Z,29.89
2023-05-24T12:02:31.181Z,29.80
2023-05-24T12:03:33.215Z,29.72
2023-05-24T12:04:35.385Z,29.83
2023-05-24T12:05:38.129Z,29.90
2023-05-24T12:06:42.384Z,29.90
2023-05-24T12:07:48.918Z,29.84
2023-05-24T12:08:50.887Z,30.00
2023-05-24T12:09:52.768Z,30.11
2023-05-24T12:10:54.800Z,30.28
2023-05-24T12:11:58.544Z,30.42
2023-05-24T12:13:00.725Z,30.23
2023-05-24T12:14:02.932Z,29.98
2023-05-24T12:15:08.123Z,29.81
2023-05-24T12:16:12.202Z,29.85
2023-05-24T12:17:18.551Z,30.10
2023-05-24T12:18:24.833Z,30.29
2023-05-24T12:19:34.837Z,30.42
2023-05-24T12:20:39.250Z,30.31
2023-05-24T12:21:41.930Z,30.28
2023-05-24T12:22:51.815Z,30.13
2023-05-24T12:23:53.637Z,30.05
2023-05-24T12:24:55.454Z,29.99
2023-05-24T12:26:01.163Z,30.07
2023-05-24T12:27:07.988Z,30.13
2023-05-24T12:28:10.102Z,30.31
2023-05-24T12:29:12.854Z,30.47
2023-05-24T12:30:21.423Z,30.61
2023-05-24T12:31:23.282Z,30.69
2023-05-24T12:32:25.601Z,30.93
2023-05-24T12:33:27.672Z,31.21
2023-05-24T12:34:29.956Z,31.47
2023-05-24T12:35:31.889Z,31.60
2023-05-24T12:36:35.778Z,31.81
2023-05-24T12:37:37.502Z,31.90
2023-05-24T12:38:39.346Z,32.08
2023-05-24T12:39:43.421Z,32.21
2023-05-24T12:40:57.057Z,32.44
2023-05-24T12:42:11.673Z,32.54
2023-05-24T12:43:15.029Z,32.58
2023-05-24T12:44:16.796Z,32.67
2023-05-24T12:45:26.043Z,32.81
2023-05-24T12:46:27.924Z,32.92
2023-05-24T12:47:29.829Z,32.95
2023-05-24T12:48:31.682Z,32.80
2023-05-24T12:49:33.991Z,32.89
2023-05-24T12:50:35.981Z,32.95
2023-05-24T12:51:37.775Z,33.20
2023-05-24T12:52:39.600Z,33.37
2023-05-24T12:53:41.667Z,33.36
2023-05-24T12:54:43.423Z,33.33
2023-05-24T12:55:45.490Z,33.22
2023-05-24T12:56:47.513Z,32.61
2023-05-24T12:57:56.160Z,32.32
2023-05-24T12:58:58.012Z,32.61
2023-05-24T12:59:59.761Z,32.61
2023-05-24T13:01:01.754Z,32.82
2023-05-24T13:02:03.570Z,32.91
2023-05-24T13:03:05.396Z,33.16
2023-05-24T13:04:07.364Z,33.21
2023-05-24T13:05:09.275Z,33.02
2023-05-24T13:06:11.307Z,33.22
2023-05-24T13:07:13.236Z,33.20
2023-05-24T13:08:15.034Z,33.02
2023-05-24T13:09:21.970Z,32.90
2023-05-24T13:10:24.838Z,32.36
2023-05-24T13:11:27.757Z,32.24
2023-05-24T13:12:29.639Z,32.35
2023-05-24T13:13:32.704Z,32.17
2023-05-24T13:14:34.660Z,31.97
2023-05-24T13:15:38.153Z,31.67
2023-05-24T13:16:40.015Z,31.75
2023-05-24T13:17:42.924Z,31.75
2023-05-24T13:18:46.417Z,31.73
2023-05-24T13:19:48.184Z,31.68
2023-05-24T13:20:51.194Z,31.53
2023-05-24T13:21:53.092Z,31.44
2023-05-24T13:22:54.898Z,31.02
2023-05-24T13:23:56.643Z,30.90
2023-05-24T13:24:58.769Z,30.82
2023-05-24T13:26:00.766Z,30.83
2023-05-24T13:27:03.630Z,30.96
2023-05-24T13:28:05.420Z,31.21
2023-05-24T13:29:32.210Z,31.16
2023-05-24T13:30:30.148Z,31.11
2023-05-24T13:31:32.009Z,31.09
2023-05-24T13:32:33.858Z,30.94
2023-05-24T13:33:35.675Z,30.82
2023-05-24T13:34:37.484Z,30.61
2023-05-24T13:35:40.040Z,30.64
2023-05-24T13:36:43.151Z,30.66
2023-05-24T13:37:44.928Z,30.56
2023-05-24T13:38:46.676Z,30.65
2023-05-24T13:39:49.718Z,30.69
2023-05-24T13:40:53.730Z,30.65
2023-05-24T13:41:55.601Z,30.65